sensor_id;sensor_type;location;lat;lon;timestamp;P1;durP1;ratioP1;P2;durP2;ratioP2
72198;SDS011;60103;51.014;16.992;2023-05-07T00:00:48;9.60;;;4.90;;
72198;SDS011;60103;51.014;16.992;2023-05-07T00:03:21;11.70;;;4.70;;
72198;SDS011;60103;51.014;16.992;2023-05-07T00:05:50;10.80;;;4.10;;
72198;SDS011;60103;51.014;16.992;2023-05-07T00:08:21;11.00;;;4.60;;
72198;SDS011;60103;51.014;16.992;2023-05-07T00:10:49;10.90;;;3.90;;
72198;SDS011;60103;51.014;16.992;2023-05-07T00:13:18;8.60;;;4.00;;
72198;SDS011;60103;51.014;16.992;2023-05-07T00:15:47;9.20;;;4.20;;
72198;SDS011;60103;51.014;16.992;2023-05-07T00:18:16;9.80;;;3.90;;
72198;SDS011;60103;51.014;16.992;2023-05-07T00:20:45;10.40;;;4.80;;
72198;SDS011;60103;51.014;16.992;2023-05-07T00:23:13;8.30;;;3.80;;
72198;SDS011;60103;51.014;16.992;2023-05-07T00:25:42;9.40;;;4.70;;
72198;SDS011;60103;51.014;16.992;2023-05-07T00:28:11;10.40;;;4.70;;
72198;SDS011;60103;51.014;16.992;2023-05-07T00:30:40;12.60;;;4.80;;
72198;SDS011;60103;51.014;16.992;2023-05-07T00:33:09;9.20;;;4.10;;
72198;SDS011;60103;51.014;16.992;2023-05-07T00:35:38;9.60;;;4.80;;
72198;SDS011;60103;51.014;16.992;2023-05-07T00:38:07;10.50;;;4.60;;
72198;SDS011;60103;51.014;16.992;2023-05-07T00:40:35;9.70;;;4.40;;
72198;SDS011;60103;51.014;16.992;2023-05-07T00:43:04;11.80;;;4.50;;
72198;SDS011;60103;51.014;16.992;2023-05-07T00:45:34;10.40;;;4.50;;
72198;SDS011;60103;51.014;16.992;2023-05-07T00:48:02;9.10;;;4.80;;
72198;SDS011;60103;51.014;16.992;2023-05-07T00:50:32;11.50;;;4.50;;
72198;SDS011;60103;51.014;16.992;2023-05-07T00:53:00;9.60;;;4.40;;
72198;SDS011;60103;51.014;16.992;2023-05-07T00:55:29;11.10;;;4.90;;
72198;SDS011;60103;51.014;16.992;2023-05-07T00:57:58;11.20;;;4.70;;
72198;SDS011;60103;51.014;16.992;2023-05-07T01:00:27;10.70;;;4.80;;
72198;SDS011;60103;51.014;16.992;2023-05-07T01:02:57;9.20;;;3.80;;
72198;SDS011;60103;51.014;16.992;2023-05-07T01:05:26;10.80;;;4.80;;
72198;SDS011;60103;51.014;16.992;2023-05-07T01:07:56;12.60;;;4.90;;
72198;SDS011;60103;51.014;16.992;2023-05-07T01:10:25;10.10;;;4.90;;
72198;SDS011;60103;51.014;16.992;2023-05-07T01:12:55;10.10;;;4.50;;
72198;SDS011;60103;51.014;16.992;2023-05-07T01:15:24;9.40;;;4.40;;
72198;SDS011;60103;51.014;16.992;2023-05-07T01:17:52;10.50;;;4.10;;
72198;SDS011;60103;51.014;16.992;2023-05-07T01:20:26;11.80;;;4.20;;
72198;SDS011;60103;51.014;16.992;2023-05-07T01:22:56;9.90;;;3.80;;
72198;SDS011;60103;51.014;16.992;2023-05-07T01:25:25;11.00;;;4.30;;
72198;SDS011;60103;51.014;16.992;2023-05-07T01:27:56;11.60;;;4.30;;
72198;SDS011;60103;51.014;16.992;2023-05-07T01:30:28;9.50;;;4.70;;
72198;SDS011;60103;51.014;16.992;2023-05-07T01:33:08;9.50;;;4.00;;
72198;SDS011;60103;51.014;16.992;2023-05-07T01:35:38;10.90;;;3.90;;
72198;SDS011;60103;51.014;16.992;2023-05-07T01:38:10;9.90;;;4.20;;
72198;SDS011;60103;51.014;16.992;2023-05-07T01:40:39;9.80;;;4.00;;
72198;SDS011;60103;51.014;16.992;2023-05-07T01:43:09;10.00;;;4.40;;
72198;SDS011;60103;51.014;16.992;2023-05-07T01:45:38;10.30;;;4.90;;
72198;SDS011;60103;51.014;16.992;2023-05-07T01:48:07;10.20;;;4.70;;
72198;SDS011;60103;51.014;16.992;2023-05-07T01:50:37;11.60;;;4.60;;
72198;SDS011;60103;51.014;16.992;2023-05-07T01:53:06;10.30;;;4.10;;
72198;SDS011;60103;51.014;16.992;2023-05-07T01:55:35;12.70;;;5.30;;
72198;SDS011;60103;51.014;16.992;2023-05-07T01:58:05;10.90;;;4.80;;
72198;SDS011;60103;51.014;16.992;2023-05-07T02:00:34;10.00;;;4.40;;
72198;SDS011;60103;51.014;16.992;2023-05-07T02:03:03;9.30;;;4.30;;
72198;SDS011;60103;51.014;16.992;2023-05-07T02:05:39;9.70;;;4.30;;
72198;SDS011;60103;51.014;16.992;2023-05-07T02:08:25;9.20;;;4.20;;
72198;SDS011;60103;51.014;16.992;2023-05-07T02:10:54;11.40;;;4.90;;
72198;SDS011;60103;51.014;16.992;2023-05-07T02:13:26;9.00;;;3.30;;
72198;SDS011;60103;51.014;16.992;2023-05-07T02:15:57;9.00;;;4.20;;
72198;SDS011;60103;51.014;16.992;2023-05-07T02:18:27;8.90;;;3.80;;
72198;SDS011;60103;51.014;16.992;2023-05-07T02:20:55;10.30;;;4.30;;
72198;SDS011;60103;51.014;16.992;2023-05-07T02:23:24;9.20;;;4.20;;
72198;SDS011;60103;51.014;16.992;2023-05-07T02:25:54;10.60;;;4.10;;
72198;SDS011;60103;51.014;16.992;2023-05-07T02:28:23;8.50;;;3.80;;
72198;SDS011;60103;51.014;16.992;2023-05-07T02:30:59;8.80;;;3.40;;
72198;SDS011;60103;51.014;16.992;2023-05-07T02:33:29;11.20;;;4.60;;
72198;SDS011;60103;51.014;16.992;2023-05-07T02:36:08;9.80;;;4.60;;
72198;SDS011;60103;51.014;16.992;2023-05-07T02:38:46;8.70;;;3.50;;
72198;SDS011;60103;51.014;16.992;2023-05-07T02:41:15;11.20;;;4.60;;
72198;SDS011;60103;51.014;16.992;2023-05-07T02:43:43;9.20;;;4.20;;
72198;SDS011;60103;51.014;16.992;2023-05-07T02:46:12;10.00;;;4.50;;
72198;SDS011;60103;51.014;16.992;2023-05-07T02:48:44;11.50;;;4.10;;
72198;SDS011;60103;51.014;16.992;2023-05-07T02:51:12;9.90;;;4.10;;
72198;SDS011;60103;51.014;16.992;2023-05-07T02:53:42;9.20;;;2.80;;
72198;SDS011;60103;51.014;16.992;2023-05-07T02:56:11;10.50;;;3.90;;
72198;SDS011;60103;51.014;16.992;2023-05-07T02:58:40;9.10;;;4.20;;
72198;SDS011;60103;51.014;16.992;2023-05-07T03:01:10;10.60;;;4.50;;
72198;SDS011;60103;51.014;16.992;2023-05-07T03:03:47;9.30;;;3.90;;
72198;SDS011;60103;51.014;16.992;2023-05-07T03:06:16;10.90;;;4.40;;
72198;SDS011;60103;51.014;16.992;2023-05-07T03:08:45;8.70;;;3.80;;
72198;SDS011;60103;51.014;16.992;2023-05-07T03:11:14;9.50;;;3.90;;
72198;SDS011;60103;51.014;16.992;2023-05-07T03:13:44;9.00;;;3.40;;
72198;SDS011;60103;51.014;16.992;2023-05-07T03:16:13;9.10;;;3.90;;
72198;SDS011;60103;51.014;16.992;2023-05-07T03:18:42;10.10;;;3.60;;
72198;SDS011;60103;51.014;16.992;2023-05-07T03:21:11;11.50;;;4.40;;
72198;SDS011;60103;51.014;16.992;2023-05-07T03:23:40;9.80;;;4.40;;
72198;SDS011;60103;51.014;16.992;2023-05-07T03:26:09;11.60;;;4.80;;
72198;SDS011;60103;51.014;16.992;2023-05-07T03:28:38;8.50;;;3.70;;
72198;SDS011;60103;51.014;16.992;2023-05-07T03:31:10;9.70;;;4.20;;
72198;SDS011;60103;51.014;16.992;2023-05-07T03:33:48;10.90;;;4.30;;
72198;SDS011;60103;51.014;16.992;2023-05-07T03:36:21;10.90;;;3.90;;
72198;SDS011;60103;51.014;16.992;2023-05-07T03:38:50;9.90;;;3.90;;
72198;SDS011;60103;51.014;16.992;2023-05-07T03:41:21;10.50;;;4.20;;
72198;SDS011;60103;51.014;16.992;2023-05-07T03:43:50;9.40;;;3.50;;
72198;SDS011;60103;51.014;16.992;2023-05-07T03:46:19;8.60;;;3.30;;
72198;SDS011;60103;51.014;16.992;2023-05-07T03:48:48;9.60;;;4.10;;
72198;SDS011;60103;51.014;16.992;2023-05-07T03:51:17;9.40;;;3.80;;
72198;SDS011;60103;51.014;16.992;2023-05-07T03:53:45;10.50;;;4.20;;
72198;SDS011;60103;51.014;16.992;2023-05-07T03:56:14;8.20;;;3.40;;
72198;SDS011;60103;51.014;16.992;2023-05-07T03:58:47;9.40;;;3.80;;
72198;SDS011;60103;51.014;16.992;2023-05-07T04:01:16;10.90;;;4.40;;
72198;SDS011;60103;51.014;16.992;2023-05-07T04:03:45;9.80;;;4.00;;
72198;SDS011;60103;51.014;16.992;2023-05-07T04:06:15;9.10;;;3.50;;
72198;SDS011;60103;51.014;16.992;2023-05-07T04:08:47;8.80;;;3.70;;
72198;SDS011;60103;51.014;16.992;2023-05-07T04:11:16;9.70;;;4.20;;
72198;SDS011;60103;51.014;16.992;2023-05-07T04:13:45;10.30;;;3.90;;
72198;SDS011;60103;51.014;16.992;2023-05-07T04:16:15;8.70;;;3.10;;
72198;SDS011;60103;51.014;16.992;2023-05-07T04:18:44;10.80;;;3.60;;
72198;SDS011;60103;51.014;16.992;2023-05-07T04:21:19;8.90;;;3.30;;
72198;SDS011;60103;51.014;16.992;2023-05-07T04:23:50;9.80;;;3.80;;
72198;SDS011;60103;51.014;16.992;2023-05-07T04:26:19;9.40;;;3.60;;
72198;SDS011;60103;51.014;16.992;2023-05-07T04:28:50;9.10;;;3.00;;
72198;SDS011;60103;51.014;16.992;2023-05-07T04:31:19;9.00;;;4.10;;
72198;SDS011;60103;51.014;16.992;2023-05-07T04:33:51;9.60;;;3.90;;
72198;SDS011;60103;51.014;16.992;2023-05-07T04:36:20;10.00;;;3.90;;
72198;SDS011;60103;51.014;16.992;2023-05-07T04:38:54;8.20;;;3.70;;
72198;SDS011;60103;51.014;16.992;2023-05-07T04:41:22;10.40;;;3.90;;
72198;SDS011;60103;51.014;16.992;2023-05-07T04:43:51;10.80;;;4.60;;
72198;SDS011;60103;51.014;16.992;2023-05-07T04:46:21;10.50;;;4.10;;
72198;SDS011;60103;51.014;16.992;2023-05-07T04:48:50;9.20;;;3.70;;
72198;SDS011;60103;51.014;16.992;2023-05-07T04:51:19;10.40;;;3.60;;
72198;SDS011;60103;51.014;16.992;2023-05-07T04:53:49;10.30;;;4.10;;
72198;SDS011;60103;51.014;16.992;2023-05-07T04:56:17;9.40;;;3.80;;
72198;SDS011;60103;51.014;16.992;2023-05-07T04:58:47;8.70;;;3.80;;
72198;SDS011;60103;51.014;16.992;2023-05-07T05:01:16;8.10;;;2.90;;
72198;SDS011;60103;51.014;16.992;2023-05-07T05:03:45;8.50;;;3.50;;
72198;SDS011;60103;51.014;16.992;2023-05-07T05:06:14;8.00;;;3.20;;
72198;SDS011;60103;51.014;16.992;2023-05-07T05:08:44;7.50;;;3.00;;
72198;SDS011;60103;51.014;16.992;2023-05-07T05:11:13;8.40;;;3.30;;
72198;SDS011;60103;51.014;16.992;2023-05-07T05:13:42;8.30;;;3.20;;
72198;SDS011;60103;51.014;16.992;2023-05-07T05:16:15;7.90;;;3.00;;
72198;SDS011;60103;51.014;16.992;2023-05-07T05:18:44;9.10;;;4.40;;
72198;SDS011;60103;51.014;16.992;2023-05-07T05:21:14;8.90;;;3.40;;
72198;SDS011;60103;51.014;16.992;2023-05-07T05:23:43;8.80;;;3.40;;
72198;SDS011;60103;51.014;16.992;2023-05-07T05:26:13;7.40;;;2.90;;
72198;SDS011;60103;51.014;16.992;2023-05-07T05:28:41;7.50;;;3.00;;
72198;SDS011;60103;51.014;16.992;2023-05-07T05:31:11;7.60;;;2.90;;
72198;SDS011;60103;51.014;16.992;2023-05-07T05:33:41;8.70;;;3.60;;
72198;SDS011;60103;51.014;16.992;2023-05-07T05:36:09;7.60;;;2.60;;
72198;SDS011;60103;51.014;16.992;2023-05-07T05:38:39;7.60;;;2.60;;
72198;SDS011;60103;51.014;16.992;2023-05-07T05:41:08;7.50;;;2.60;;
72198;SDS011;60103;51.014;16.992;2023-05-07T05:43:38;7.30;;;2.40;;
72198;SDS011;60103;51.014;16.992;2023-05-07T05:46:07;8.70;;;2.80;;
72198;SDS011;60103;51.014;16.992;2023-05-07T05:48:37;8.70;;;2.90;;
72198;SDS011;60103;51.014;16.992;2023-05-07T05:51:06;8.40;;;3.20;;
72198;SDS011;60103;51.014;16.992;2023-05-07T05:53:35;7.80;;;3.20;;
72198;SDS011;60103;51.014;16.992;2023-05-07T05:56:04;8.00;;;3.10;;
72198;SDS011;60103;51.014;16.992;2023-05-07T05:58:33;8.70;;;3.30;;
72198;SDS011;60103;51.014;16.992;2023-05-07T06:01:05;8.70;;;3.20;;
72198;SDS011;60103;51.014;16.992;2023-05-07T06:03:34;8.90;;;3.60;;
72198;SDS011;60103;51.014;16.992;2023-05-07T06:06:06;9.00;;;3.10;;
72198;SDS011;60103;51.014;16.992;2023-05-07T06:08:35;8.50;;;3.40;;
72198;SDS011;60103;51.014;16.992;2023-05-07T06:11:04;7.20;;;2.70;;
72198;SDS011;60103;51.014;16.992;2023-05-07T06:13:34;7.80;;;3.10;;
72198;SDS011;60103;51.014;16.992;2023-05-07T06:16:03;8.00;;;3.40;;
72198;SDS011;60103;51.014;16.992;2023-05-07T06:18:33;6.90;;;3.00;;
72198;SDS011;60103;51.014;16.992;2023-05-07T06:21:04;8.30;;;3.00;;
72198;SDS011;60103;51.014;16.992;2023-05-07T06:23:34;8.70;;;3.70;;
72198;SDS011;60103;51.014;16.992;2023-05-07T06:26:04;7.60;;;2.50;;
72198;SDS011;60103;51.014;16.992;2023-05-07T06:28:36;7.60;;;2.90;;
72198;SDS011;60103;51.014;16.992;2023-05-07T06:31:15;8.40;;;2.70;;
72198;SDS011;60103;51.014;16.992;2023-05-07T06:33:50;7.10;;;2.50;;
72198;SDS011;60103;51.014;16.992;2023-05-07T06:36:20;7.50;;;2.90;;
72198;SDS011;60103;51.014;16.992;2023-05-07T06:38:48;7.90;;;3.30;;
72198;SDS011;60103;51.014;16.992;2023-05-07T06:41:18;8.80;;;3.10;;
72198;SDS011;60103;51.014;16.992;2023-05-07T06:43:48;7.70;;;3.00;;
72198;SDS011;60103;51.014;16.992;2023-05-07T06:46:38;6.60;;;2.40;;
72198;SDS011;60103;51.014;16.992;2023-05-07T06:49:08;7.30;;;2.50;;
72198;SDS011;60103;51.014;16.992;2023-05-07T06:51:36;7.00;;;2.40;;
72198;SDS011;60103;51.014;16.992;2023-05-07T06:54:05;7.60;;;2.70;;
72198;SDS011;60103;51.014;16.992;2023-05-07T06:56:36;7.60;;;2.60;;
72198;SDS011;60103;51.014;16.992;2023-05-07T06:59:05;8.10;;;2.30;;
72198;SDS011;60103;51.014;16.992;2023-05-07T07:01:37;6.30;;;2.00;;
72198;SDS011;60103;51.014;16.992;2023-05-07T07:04:06;7.20;;;2.60;;
72198;SDS011;60103;51.014;16.992;2023-05-07T07:06:35;7.50;;;2.40;;
72198;SDS011;60103;51.014;16.992;2023-05-07T07:09:07;7.20;;;2.70;;
72198;SDS011;60103;51.014;16.992;2023-05-07T07:11:36;7.60;;;2.70;;
72198;SDS011;60103;51.014;16.992;2023-05-07T07:14:05;7.20;;;2.70;;
72198;SDS011;60103;51.014;16.992;2023-05-07T07:16:38;7.70;;;3.00;;
72198;SDS011;60103;51.014;16.992;2023-05-07T07:19:07;8.60;;;3.50;;
72198;SDS011;60103;51.014;16.992;2023-05-07T07:21:36;8.00;;;3.20;;
72198;SDS011;60103;51.014;16.992;2023-05-07T07:24:05;7.60;;;2.80;;
72198;SDS011;60103;51.014;16.992;2023-05-07T07:26:33;8.40;;;3.20;;
72198;SDS011;60103;51.014;16.992;2023-05-07T07:29:03;7.50;;;3.00;;
72198;SDS011;60103;51.014;16.992;2023-05-07T07:31:32;8.20;;;2.80;;
72198;SDS011;60103;51.014;16.992;2023-05-07T07:34:01;8.60;;;3.00;;
72198;SDS011;60103;51.014;16.992;2023-05-07T07:36:30;8.10;;;2.90;;
72198;SDS011;60103;51.014;16.992;2023-05-07T07:39:14;7.30;;;2.70;;
72198;SDS011;60103;51.014;16.992;2023-05-07T07:41:44;7.70;;;3.50;;
72198;SDS011;60103;51.014;16.992;2023-05-07T07:44:13;7.50;;;2.60;;
72198;SDS011;60103;51.014;16.992;2023-05-07T07:46:46;6.90;;;2.40;;
72198;SDS011;60103;51.014;16.992;2023-05-07T07:49:15;7.70;;;2.40;;
72198;SDS011;60103;51.014;16.992;2023-05-07T07:51:45;6.60;;;2.20;;
72198;SDS011;60103;51.014;16.992;2023-05-07T07:54:14;6.20;;;2.00;;
72198;SDS011;60103;51.014;16.992;2023-05-07T07:56:44;9.10;;;2.30;;
72198;SDS011;60103;51.014;16.992;2023-05-07T07:59:13;7.90;;;2.30;;
72198;SDS011;60103;51.014;16.992;2023-05-07T08:01:46;6.40;;;2.20;;
72198;SDS011;60103;51.014;16.992;2023-05-07T08:04:16;7.60;;;2.20;;
72198;SDS011;60103;51.014;16.992;2023-05-07T08:06:46;6.70;;;2.10;;
72198;SDS011;60103;51.014;16.992;2023-05-07T08:09:15;7.40;;;2.40;;
72198;SDS011;60103;51.014;16.992;2023-05-07T08:11:45;6.80;;;2.10;;
72198;SDS011;60103;51.014;16.992;2023-05-07T08:14:14;7.40;;;2.50;;
72198;SDS011;60103;51.014;16.992;2023-05-07T08:16:46;7.10;;;2.10;;
72198;SDS011;60103;51.014;16.992;2023-05-07T08:19:14;8.60;;;3.00;;
72198;SDS011;60103;51.014;16.992;2023-05-07T08:21:44;9.30;;;3.80;;
72198;SDS011;60103;51.014;16.992;2023-05-07T08:24:16;7.70;;;3.20;;
72198;SDS011;60103;51.014;16.992;2023-05-07T08:26:46;8.00;;;2.40;;
72198;SDS011;60103;51.014;16.992;2023-05-07T08:29:16;8.30;;;3.10;;
72198;SDS011;60103;51.014;16.992;2023-05-07T08:31:45;7.20;;;2.90;;
72198;SDS011;60103;51.014;16.992;2023-05-07T08:34:14;7.30;;;2.80;;
72198;SDS011;60103;51.014;16.992;2023-05-07T08:36:44;8.60;;;3.60;;
72198;SDS011;60103;51.014;16.992;2023-05-07T08:39:16;7.70;;;3.00;;
72198;SDS011;60103;51.014;16.992;2023-05-07T08:41:45;11.00;;;3.90;;
72198;SDS011;60103;51.014;16.992;2023-05-07T08:44:16;8.80;;;3.60;;
72198;SDS011;60103;51.014;16.992;2023-05-07T08:46:46;10.00;;;3.80;;
72198;SDS011;60103;51.014;16.992;2023-05-07T08:49:17;8.70;;;3.60;;
72198;SDS011;60103;51.014;16.992;2023-05-07T08:51:46;10.00;;;3.40;;
72198;SDS011;60103;51.014;16.992;2023-05-07T08:54:16;7.80;;;3.00;;
72198;SDS011;60103;51.014;16.992;2023-05-07T08:56:46;8.70;;;3.10;;
72198;SDS011;60103;51.014;16.992;2023-05-07T08:59:15;8.20;;;3.70;;
72198;SDS011;60103;51.014;16.992;2023-05-07T09:01:44;8.10;;;3.10;;
72198;SDS011;60103;51.014;16.992;2023-05-07T09:04:14;8.80;;;2.80;;
72198;SDS011;60103;51.014;16.992;2023-05-07T09:06:44;8.50;;;3.30;;
72198;SDS011;60103;51.014;16.992;2023-05-07T09:09:14;8.00;;;3.40;;
72198;SDS011;60103;51.014;16.992;2023-05-07T09:11:47;8.50;;;3.80;;
72198;SDS011;60103;51.014;16.992;2023-05-07T09:14:17;8.90;;;3.70;;
72198;SDS011;60103;51.014;16.992;2023-05-07T09:16:52;8.80;;;4.00;;
72198;SDS011;60103;51.014;16.992;2023-05-07T09:19:24;9.70;;;3.50;;
72198;SDS011;60103;51.014;16.992;2023-05-07T09:22:02;9.90;;;4.10;;
72198;SDS011;60103;51.014;16.992;2023-05-07T09:24:48;10.30;;;5.00;;
72198;SDS011;60103;51.014;16.992;2023-05-07T09:27:20;9.70;;;3.70;;
72198;SDS011;60103;51.014;16.992;2023-05-07T09:29:49;9.00;;;3.80;;
72198;SDS011;60103;51.014;16.992;2023-05-07T09:32:18;9.50;;;4.30;;
72198;SDS011;60103;51.014;16.992;2023-05-07T09:34:48;9.40;;;4.10;;
72198;SDS011;60103;51.014;16.992;2023-05-07T09:37:19;9.10;;;3.90;;
72198;SDS011;60103;51.014;16.992;2023-05-07T09:39:49;7.90;;;3.10;;
72198;SDS011;60103;51.014;16.992;2023-05-07T09:42:24;9.80;;;3.70;;
72198;SDS011;60103;51.014;16.992;2023-05-07T09:44:59;8.60;;;3.90;;
72198;SDS011;60103;51.014;16.992;2023-05-07T09:47:33;7.90;;;3.20;;
72198;SDS011;60103;51.014;16.992;2023-05-07T09:50:07;8.80;;;4.00;;
72198;SDS011;60103;51.014;16.992;2023-05-07T09:52:38;7.50;;;2.80;;
72198;SDS011;60103;51.014;16.992;2023-05-07T09:55:09;7.50;;;3.40;;
72198;SDS011;60103;51.014;16.992;2023-05-07T09:57:41;8.30;;;3.60;;
72198;SDS011;60103;51.014;16.992;2023-05-07T10:00:11;7.50;;;2.50;;
72198;SDS011;60103;51.014;16.992;2023-05-07T10:02:57;8.50;;;3.30;;
72198;SDS011;60103;51.014;16.992;2023-05-07T10:05:33;7.30;;;2.90;;
72198;SDS011;60103;51.014;16.992;2023-05-07T10:08:02;8.40;;;3.60;;
72198;SDS011;60103;51.014;16.992;2023-05-07T10:10:33;7.40;;;3.10;;
72198;SDS011;60103;51.014;16.992;2023-05-07T10:13:03;8.50;;;3.40;;
72198;SDS011;60103;51.014;16.992;2023-05-07T10:15:39;8.90;;;3.10;;
72198;SDS011;60103;51.014;16.992;2023-05-07T10:18:10;9.60;;;3.20;;
72198;SDS011;60103;51.014;16.992;2023-05-07T10:20:41;8.50;;;3.70;;
72198;SDS011;60103;51.014;16.992;2023-05-07T10:23:12;9.60;;;3.80;;
72198;SDS011;60103;51.014;16.992;2023-05-07T10:25:45;8.60;;;3.80;;
72198;SDS011;60103;51.014;16.992;2023-05-07T10:28:18;9.80;;;3.50;;
72198;SDS011;60103;51.014;16.992;2023-05-07T10:33:36;8.30;;;3.60;;
72198;SDS011;60103;51.014;16.992;2023-05-07T10:36:07;8.30;;;3.20;;
72198;SDS011;60103;51.014;16.992;2023-05-07T10:38:37;7.40;;;3.00;;
72198;SDS011;60103;51.014;16.992;2023-05-07T10:41:10;8.30;;;3.00;;
72198;SDS011;60103;51.014;16.992;2023-05-07T10:43:42;8.30;;;3.40;;
72198;SDS011;60103;51.014;16.992;2023-05-07T10:46:20;7.50;;;3.20;;
72198;SDS011;60103;51.014;16.992;2023-05-07T10:49:10;7.30;;;3.10;;
72198;SDS011;60103;51.014;16.992;2023-05-07T10:52:14;7.90;;;3.10;;
72198;SDS011;60103;51.014;16.992;2023-05-07T10:58:02;6.90;;;2.40;;
72198;SDS011;60103;51.014;16.992;2023-05-07T11:01:47;7.40;;;2.80;;
72198;SDS011;60103;51.014;16.992;2023-05-07T11:05:29;12.30;;;5.40;;
72198;SDS011;60103;51.014;16.992;2023-05-07T11:08:02;7.40;;;2.90;;
72198;SDS011;60103;51.014;16.992;2023-05-07T11:10:49;9.00;;;3.20;;
72198;SDS011;60103;51.014;16.992;2023-05-07T11:13:48;8.50;;;3.10;;
72198;SDS011;60103;51.014;16.992;2023-05-07T11:16:34;13.30;;;6.10;;
72198;SDS011;60103;51.014;16.992;2023-05-07T11:22:41;7.80;;;3.30;;
72198;SDS011;60103;51.014;16.992;2023-05-07T11:25:29;8.10;;;3.30;;
72198;SDS011;60103;51.014;16.992;2023-05-07T11:28:07;9.10;;;3.60;;
72198;SDS011;60103;51.014;16.992;2023-05-07T11:30:43;6.70;;;2.60;;
72198;SDS011;60103;51.014;16.992;2023-05-07T11:33:17;7.80;;;3.50;;
72198;SDS011;60103;51.014;16.992;2023-05-07T11:35:46;7.80;;;3.30;;
72198;SDS011;60103;51.014;16.992;2023-05-07T11:38:16;8.40;;;3.40;;
72198;SDS011;60103;51.014;16.992;2023-05-07T11:40:54;7.40;;;3.00;;
72198;SDS011;60103;51.014;16.992;2023-05-07T11:43:24;6.90;;;2.80;;
72198;SDS011;60103;51.014;16.992;2023-05-07T11:45:53;7.60;;;2.80;;
72198;SDS011;60103;51.014;16.992;2023-05-07T11:48:22;8.20;;;3.20;;
72198;SDS011;60103;51.014;16.992;2023-05-07T11:51:09;7.80;;;3.10;;
72198;SDS011;60103;51.014;16.992;2023-05-07T11:53:41;8.10;;;3.20;;
72198;SDS011;60103;51.014;16.992;2023-05-07T11:56:12;9.00;;;3.70;;
72198;SDS011;60103;51.014;16.992;2023-05-07T11:58:43;8.60;;;3.60;;
72198;SDS011;60103;51.014;16.992;2023-05-07T12:01:13;8.60;;;3.10;;
72198;SDS011;60103;51.014;16.992;2023-05-07T12:03:44;8.40;;;3.60;;
72198;SDS011;60103;51.014;16.992;2023-05-07T12:06:15;7.50;;;3.00;;
72198;SDS011;60103;51.014;16.992;2023-05-07T12:08:45;6.80;;;2.40;;
72198;SDS011;60103;51.014;16.992;2023-05-07T12:11:21;6.30;;;2.30;;
72198;SDS011;60103;51.014;16.992;2023-05-07T12:13:53;7.20;;;2.40;;
72198;SDS011;60103;51.014;16.992;2023-05-07T12:16:26;7.50;;;2.90;;
72198;SDS011;60103;51.014;16.992;2023-05-07T12:18:58;7.80;;;2.50;;
72198;SDS011;60103;51.014;16.992;2023-05-07T12:21:27;6.80;;;2.60;;
72198;SDS011;60103;51.014;16.992;2023-05-07T12:23:56;9.90;;;2.90;;
72198;SDS011;60103;51.014;16.992;2023-05-07T12:26:26;6.90;;;2.50;;
72198;SDS011;60103;51.014;16.992;2023-05-07T12:28:55;7.20;;;2.40;;
72198;SDS011;60103;51.014;16.992;2023-05-07T12:31:26;6.90;;;2.60;;
72198;SDS011;60103;51.014;16.992;2023-05-07T12:33:57;7.10;;;2.70;;
72198;SDS011;60103;51.014;16.992;2023-05-07T12:36:26;7.20;;;2.50;;
72198;SDS011;60103;51.014;16.992;2023-05-07T12:38:55;7.20;;;2.30;;
72198;SDS011;60103;51.014;16.992;2023-05-07T12:41:24;6.60;;;2.20;;
72198;SDS011;60103;51.014;16.992;2023-05-07T12:43:57;7.70;;;2.70;;
72198;SDS011;60103;51.014;16.992;2023-05-07T12:46:27;7.10;;;2.70;;
72198;SDS011;60103;51.014;16.992;2023-05-07T12:48:56;7.80;;;3.40;;
72198;SDS011;60103;51.014;16.992;2023-05-07T12:51:27;7.50;;;3.10;;
72198;SDS011;60103;51.014;16.992;2023-05-07T12:53:57;10.40;;;3.90;;
72198;SDS011;60103;51.014;16.992;2023-05-07T12:56:25;8.30;;;3.30;;
72198;SDS011;60103;51.014;16.992;2023-05-07T12:58:56;9.00;;;2.90;;
72198;SDS011;60103;51.014;16.992;2023-05-07T13:01:29;8.30;;;3.00;;
72198;SDS011;60103;51.014;16.992;2023-05-07T13:04:02;7.60;;;2.90;;
72198;SDS011;60103;51.014;16.992;2023-05-07T13:06:32;8.10;;;2.80;;
72198;SDS011;60103;51.014;16.992;2023-05-07T13:09:01;9.00;;;3.10;;
72198;SDS011;60103;51.014;16.992;2023-05-07T13:11:30;10.20;;;4.10;;
72198;SDS011;60103;51.014;16.992;2023-05-07T13:14:00;8.70;;;3.20;;
72198;SDS011;60103;51.014;16.992;2023-05-07T13:16:29;8.60;;;3.50;;
72198;SDS011;60103;51.014;16.992;2023-05-07T13:18:57;8.30;;;2.90;;
72198;SDS011;60103;51.014;16.992;2023-05-07T13:21:28;8.00;;;2.70;;
72198;SDS011;60103;51.014;16.992;2023-05-07T13:23:57;7.70;;;2.90;;
72198;SDS011;60103;51.014;16.992;2023-05-07T13:26:29;7.90;;;2.70;;
72198;SDS011;60103;51.014;16.992;2023-05-07T13:28:59;10.80;;;3.40;;
72198;SDS011;60103;51.014;16.992;2023-05-07T13:31:28;10.40;;;4.00;;
72198;SDS011;60103;51.014;16.992;2023-05-07T13:33:59;8.70;;;2.70;;
72198;SDS011;60103;51.014;16.992;2023-05-07T13:36:29;8.70;;;3.60;;
72198;SDS011;60103;51.014;16.992;2023-05-07T13:39:03;9.10;;;3.60;;
72198;SDS011;60103;51.014;16.992;2023-05-07T13:41:34;9.90;;;3.20;;
72198;SDS011;60103;51.014;16.992;2023-05-07T13:44:04;9.50;;;4.30;;
72198;SDS011;60103;51.014;16.992;2023-05-07T13:46:34;11.80;;;4.60;;
72198;SDS011;60103;51.014;16.992;2023-05-07T13:49:03;9.00;;;3.50;;
72198;SDS011;60103;51.014;16.992;2023-05-07T13:51:32;10.60;;;3.90;;
72198;SDS011;60103;51.014;16.992;2023-05-07T13:54:02;8.90;;;3.70;;
72198;SDS011;60103;51.014;16.992;2023-05-07T13:56:31;11.40;;;4.40;;
72198;SDS011;60103;51.014;16.992;2023-05-07T13:59:01;10.10;;;4.00;;
72198;SDS011;60103;51.014;16.992;2023-05-07T14:01:31;10.90;;;3.90;;
72198;SDS011;60103;51.014;16.992;2023-05-07T14:04:00;10.30;;;3.50;;
72198;SDS011;60103;51.014;16.992;2023-05-07T14:06:29;9.80;;;3.50;;
72198;SDS011;60103;51.014;16.992;2023-05-07T14:08:59;7.60;;;3.00;;
72198;SDS011;60103;51.014;16.992;2023-05-07T14:11:30;7.70;;;3.00;;
72198;SDS011;60103;51.014;16.992;2023-05-07T14:14:00;9.10;;;3.80;;
72198;SDS011;60103;51.014;16.992;2023-05-07T14:16:30;8.10;;;3.20;;
72198;SDS011;60103;51.014;16.992;2023-05-07T14:18:59;8.40;;;3.10;;
72198;SDS011;60103;51.014;16.992;2023-05-07T14:21:31;9.10;;;3.70;;
72198;SDS011;60103;51.014;16.992;2023-05-07T14:24:01;8.80;;;3.30;;
72198;SDS011;60103;51.014;16.992;2023-05-07T14:26:30;9.60;;;3.60;;
72198;SDS011;60103;51.014;16.992;2023-05-07T14:28:59;8.80;;;3.60;;
72198;SDS011;60103;51.014;16.992;2023-05-07T14:31:28;9.70;;;3.40;;
72198;SDS011;60103;51.014;16.992;2023-05-07T14:33:57;9.20;;;3.40;;
72198;SDS011;60103;51.014;16.992;2023-05-07T14:36:27;9.50;;;3.30;;
72198;SDS011;60103;51.014;16.992;2023-05-07T14:38:55;8.50;;;3.30;;
72198;SDS011;60103;51.014;16.992;2023-05-07T14:41:28;7.60;;;2.60;;
72198;SDS011;60103;51.014;16.992;2023-05-07T14:43:56;7.80;;;3.00;;
72198;SDS011;60103;51.014;16.992;2023-05-07T14:46:27;9.30;;;3.50;;
72198;SDS011;60103;51.014;16.992;2023-05-07T14:48:56;7.80;;;3.30;;
72198;SDS011;60103;51.014;16.992;2023-05-07T14:51:25;8.50;;;3.50;;
72198;SDS011;60103;51.014;16.992;2023-05-07T14:53:56;8.20;;;3.20;;
72198;SDS011;60103;51.014;16.992;2023-05-07T14:56:25;9.50;;;3.30;;
72198;SDS011;60103;51.014;16.992;2023-05-07T14:58:54;7.70;;;3.20;;
72198;SDS011;60103;51.014;16.992;2023-05-07T15:01:25;6.90;;;2.60;;
72198;SDS011;60103;51.014;16.992;2023-05-07T15:03:54;8.40;;;3.30;;